Spirit Of New Jersey — WCX9137 — position and weather

sailwx.info

Track history (hours):
 
Tides and Currents Weather Stations Pressure Air Temp Water Temp Dewpoint Dewpoint Depression Visibility Wind Speed Wind Dir Waves Ship Positions

Spirit Of New Jersey

Owner: SPIRIT CRUISES, NEW YORK, NY. More information available from US FCC via Universal Licensing System and Coast Guard Vessel Documentation Center.

Last reported at 2018-Jun-24 02:37 UTC. Time now 2018-Jun-24 07:23 UTC.
Position N 40°45' W 074°01'.

MMSI: 364919326.

Date/timePositionNaut miles runAvg speedWind from/ knotsBaromVisibWave heightAir tempDewpointWater temp
2018-Jun-24 02:37N 40°45' W 074°01'1 1.3
2018-Jun-24 02:04N 40°46' W 074°01'0 0.1
2018-Jun-24 01:58N 40°46' W 074°01'2 4.1
2018-Jun-24 01:31N 40°44' W 074°01'3 5.5
2018-Jun-24 01:01N 40°41' W 074°03'1 2.6
2018-Jun-24 00:30N 40°42' W 074°02'2 4.4
2018-Jun-24 00:00N 40°42' W 073°59'2 4.0
2018-Jun-23 23:30N 40°43' W 074°01'2 4.6
2018-Jun-23 23:00N 40°46' W 074°01'0 0.0
2018-Jun-23 22:30N 40°46' W 074°01'1 1.4
2018-Jun-23 22:00N 40°45' W 074°01'0 0.0
2018-Jun-23 19:23N 40°45' W 074°01'1 0.6
2018-Jun-23 18:03N 40°46' W 074°01'0 3.8
2018-Jun-23 18:01N 40°46' W 074°01'2 3.5
2018-Jun-23 17:30N 40°44' W 074°01'3 5.8
2018-Jun-23 17:01N 40°41' W 074°03'3 5.3
2018-Jun-23 16:31N 40°44' W 074°01'2 3.1
2018-Jun-23 15:56N 40°46' W 074°01'0 0.0
2018-Jun-23 15:30N 40°46' W 074°01'0 0.0
2018-Jun-23 14:59N 40°46' W 074°01'1 1.2
2018-Jun-23 14:18N 40°45' W 074°01'0 0.0
2018-Jun-23 08:03N 40°45' W 074°01'0 6.8
2018-Jun-23 08:01N 40°45' W 074°01'1 1.0
2018-Jun-23 07:29N 40°46' W 074°01'2 3.5
2018-Jun-23 07:01N 40°44' W 074°01'3 5.7
2018-Jun-23 06:31N 40°41' W 074°02'4 7.4
2018-Jun-23 06:00N 40°43' W 073°58'2 4.8
2018-Jun-23 05:31N 40°42' W 074°01'4 7.3
2018-Jun-23 05:00N 40°46' W 074°01'0 0.0
2018-Jun-23 04:30N 40°46' W 074°01'0 1.0
2018-Jun-23 04:00N 40°45' W 074°01'0 0.3
2018-Jun-23 03:03N 40°45' W 074°01'0 0.0
2018-Jun-23 02:52N 40°45' W 074°01'1 0.7
2018-Jun-23 01:49N 40°46' W 074°01'0 1.1
2018-Jun-23 01:31N 40°45' W 074°01'4 7.9
2018-Jun-23 01:01N 40°42' W 074°02'2 3.6
2018-Jun-23 00:31N 40°42' W 074°00'2 3.5
2018-Jun-23 00:00N 40°44' W 074°01'2 3.8
2018-Jun-22 23:30N 40°46' W 074°01'0 0.0
2018-Jun-22 23:00N 40°46' W 074°01'0 0.0
2018-Jun-22 22:30N 40°46' W 074°01'1 1.3
2018-Jun-22 21:59N 40°45' W 074°01'0 0.0
2018-Jun-22 02:09N 40°45' W 074°01'0 0.0
2018-Jun-22 02:00N 40°45' W 074°01'0 0.0
2018-Jun-22 01:21N 40°45' W 074°01'1 4.2
2018-Jun-22 01:00N 40°44' W 074°01'3 5.3
2018-Jun-22 00:30N 40°41' W 074°03'2 4.6
2018-Jun-22 00:00N 40°42' W 073°60'3 5.2
2018-Jun-21 23:30N 40°45' W 074°01'0 0.4
2018-Jun-21 22:38N 40°45' W 074°01'0 0.0
2018-Jun-21 22:20N 40°45' W 074°01'0 0.0
2018-Jun-21 21:55N 40°45' W 074°01'0 0.0
2018-Jun-21 19:45N 40°45' W 074°01'0 0.0
2018-Jun-21 19:13N 40°45' W 074°01'0 0.0
2018-Jun-21 18:56N 40°45' W 074°01'1 1.7
2018-Jun-21 18:29N 40°46' W 074°01'0 0.0
2018-Jun-21 18:00N 40°46' W 074°01'1 2.6
2018-Jun-21 17:30N 40°44' W 074°01'3 6.1
2018-Jun-21 17:00N 40°41' W 074°02'2 3.3
2018-Jun-21 16:30N 40°43' W 074°01'3 5.3
2018-Jun-21 16:00N 40°46' W 074°01'0 0.0
2018-Jun-21 15:29N 40°46' W 074°01'0 1.0
2018-Jun-21 15:00N 40°45' W 074°01'0 0.6
2018-Jun-21 14:30N 40°45' W 074°01'0 0.0
2018-Jun-21 02:50N 40°45' W 074°01'1 2.4
2018-Jun-21 02:30N 40°46' W 074°01'0 0.0
2018-Jun-21 02:00N 40°46' W 074°01'0 0.0
2018-Jun-21 01:30N 40°46' W 074°01'2 4.6
2018-Jun-21 01:00N 40°43' W 074°01'2 4.0
2018-Jun-21 00:30N 40°41' W 074°02'2 4.3
2018-Jun-21 00:00N 40°42' W 073°60'1 2.9
2018-Jun-20 23:30N 40°43' W 074°01'2 4.6
2018-Jun-20 23:00N 40°46' W 074°01'0 0.0
2018-Jun-20 22:30N 40°46' W 074°01'0 0.0
2018-Jun-20 22:00N 40°46' W 074°01'1 1.5
2018-Jun-20 21:29N 40°45' W 074°01'0 0.0
2018-Jun-20 01:24N 40°45' W 074°01'1 1.8
2018-Jun-20 00:59N 40°44' W 074°01'3 6.5
2018-Jun-20 00:30N 40°41' W 074°02'2 3.0
2018-Jun-20 00:00N 40°43' W 074°02'2 4.7
2018-Jun-19 23:30N 40°45' W 074°01'0 0.0
2018-Jun-19 23:00N 40°45' W 074°01'0 0.0
2018-Jun-19 22:30N 40°45' W 074°01'0 0.0
2018-Jun-19 22:00N 40°45' W 074°01'0 0.0
2018-Jun-19 21:29N 40°45' W 074°01'0 0.0
2018-Jun-19 20:59N 40°45' W 074°01'0 0.0
2018-Jun-19 20:27N 40°45' W 074°01'0 0.0
2018-Jun-19 19:38N 40°45' W 074°01'0 3.2
2018-Jun-19 19:30N 40°45' W 074°01'0 0.8
2018-Jun-19 19:00N 40°46' W 074°01'0 0.5
2018-Jun-19 18:30N 40°46' W 074°01'4 7.7
2018-Jun-19 18:00N 40°42' W 074°02'1 2.9
2018-Jun-19 17:30N 40°42' W 074°00'4 7.1
2018-Jun-19 17:00N 40°46' W 074°01'0 0.0
2018-Jun-19 16:30N 40°46' W 074°01'1 1.3
2018-Jun-19 15:55N 40°45' W 074°01'0 0.0
2018-Jun-19 01:46N 40°45' W 074°01'1 2.8
2018-Jun-19 01:31N 40°44' W 074°01'3 5.3
2018-Jun-19 01:00N 40°42' W 074°02'2 4.0
2018-Jun-19 00:31N 40°42' W 073°60'1 2.2
2018-Jun-19 00:01N 40°42' W 074°01'4 7.8
2018-Jun-18 23:29N 40°46' W 074°00'1 1.9
2018-Jun-18 22:59N 40°45' W 074°01'0 0.0
2018-Jun-18 03:27N 40°45' W 074°01'2 5.1
2018-Jun-18 03:00N 40°43' W 074°02'1 2.6
2018-Jun-18 02:30N 40°42' W 074°00'3 6.3
2018-Jun-18 02:00N 40°45' W 074°01'0 0.4
2018-Jun-18 01:09N 40°45' W 074°01'0 0.0
2018-Jun-18 00:46N 40°45' W 074°01'0 0.0
2018-Jun-18 00:26N 40°45' W 074°01'0 1.1
2018-Jun-18 00:00N 40°45' W 074°01'0 0.6
2018-Jun-17 23:29N 40°46' W 074°01'0 0.1
2018-Jun-17 23:00N 40°46' W 074°01'3 6.1
2018-Jun-17 22:30N 40°43' W 074°02'1 2.8
2018-Jun-17 22:01N 40°42' W 074°00'3 5.3
2018-Jun-17 21:30N 40°45' W 074°01'1 1.9
2018-Jun-17 21:00N 40°46' W 074°01'0 0.0
2018-Jun-17 20:30N 40°46' W 074°01'1 1.5
2018-Jun-17 19:59N 40°45' W 074°01'0 0.0
2018-Jun-17 19:30N 40°45' W 074°01'0 0.0
2018-Jun-17 18:56N 40°45' W 074°01'1 1.8
2018-Jun-17 18:30N 40°46' W 074°01'0 0.2
2018-Jun-17 18:00N 40°46' W 074°01'3 5.1
2018-Jun-17 17:30N 40°43' W 074°01'1 2.6
2018-Jun-17 17:00N 40°42' W 074°01'2 4.2
2018-Jun-17 16:30N 40°44' W 074°01'2 3.3
2018-Jun-17 16:00N 40°46' W 074°01'0 0.0
2018-Jun-17 15:29N 40°46' W 074°01'0 0.0
2018-Jun-17 15:00N 40°46' W 074°01'1 0.1
2018-Jun-17 03:09N 40°45' W 074°01'0 2.8
2018-Jun-17 03:00N 40°45' W 074°01'0 0.7
2018-Jun-17 02:30N 40°46' W 074°01'0 0.0
2018-Jun-17 02:00N 40°46' W 074°01'1 1.9
2018-Jun-17 01:30N 40°45' W 074°01'4 7.2
2018-Jun-17 01:00N 40°41' W 074°02'1 2.6
2018-Jun-17 00:30N 40°42' W 074°01'2 3.8
2018-Jun-17 00:00N 40°43' W 073°59'2 4.1
2018-Jun-16 23:30N 40°43' W 074°01'3 6.1
2018-Jun-16 23:00N 40°46' W 074°01'0 0.0
2018-Jun-16 22:30N 40°46' W 074°01'0 0.0
2018-Jun-16 22:00N 40°46' W 074°01'1 1.5
2018-Jun-16 21:30N 40°45' W 074°01'0 0.0
2018-Jun-16 18:41N 40°45' W 074°01'1 4.0
2018-Jun-16 18:30N 40°46' W 074°01'0 0.0
2018-Jun-16 18:00N 40°46' W 074°01'1 2.6
2018-Jun-16 17:30N 40°44' W 074°01'3 5.1
2018-Jun-16 17:00N 40°42' W 074°02'2 4.4
2018-Jun-16 16:30N 40°44' W 074°01'2 3.2
2018-Jun-16 16:00N 40°46' W 074°01'0 0.0
2018-Jun-16 15:30N 40°46' W 074°01'0 0.0
2018-Jun-16 15:00N 40°46' W 074°01'0 0.0
2018-Jun-16 14:30N 40°46' W 074°01'0 0.0
2018-Jun-16 14:00N 40°46' W 074°01'1 0.1
2018-Jun-16 02:46N 40°45' W 074°01'1 3.1
2018-Jun-16 02:31N 40°46' W 074°01'0 0.0
2018-Jun-16 02:00N 40°46' W 074°01'2 3.5
2018-Jun-16 01:31N 40°44' W 074°01'2 4.9
2018-Jun-16 01:01N 40°42' W 074°02'3 5.5
2018-Jun-16 00:30N 40°43' W 073°59'2 3.5
2018-Jun-16 00:01N 40°44' W 073°58'3 6.5
2018-Jun-15 23:30N 40°42' W 074°01'4 7.4
2018-Jun-15 23:00N 40°46' W 074°01'0 0.0
2018-Jun-15 22:30N 40°46' W 074°01'0 0.0
2018-Jun-15 22:01N 40°46' W 074°01'1 1.5
2018-Jun-15 21:30N 40°45' W 074°01'0 0.0
2018-Jun-15 18:35N 40°45' W 074°01'0 0.6
2018-Jun-15 18:30N 40°45' W 074°01'1 1.5
2018-Jun-15 18:00N 40°46' W 074°01'2 3.9
2018-Jun-15 17:30N 40°44' W 074°01'3 5.2
2018-Jun-15 17:00N 40°41' W 074°03'1 2.7
2018-Jun-15 16:30N 40°42' W 074°01'4 7.4
2018-Jun-15 16:00N 40°46' W 074°01'0 0.0
2018-Jun-15 15:30N 40°46' W 074°01'0 0.0
2018-Jun-15 15:00N 40°46' W 074°01'1 0.1
2018-Jun-15 00:51N 40°45' W 074°01'2 6.1
2018-Jun-15 00:30N 40°43' W 074°01'1 2.1
2018-Jun-15 00:00N 40°42' W 074°01'1 1.6
2018-Jun-14 23:30N 40°42' W 074°00'3 6.6
2018-Jun-14 23:00N 40°45' W 074°01'0 0.1
2018-Jun-14 20:20N 40°45' W 074°01'0 0.0
2018-Jun-14 19:52N 40°45' W 074°01'0 0.0
2018-Jun-14 19:27N 40°45' W 074°01'0 0.0
2018-Jun-14 19:00N 40°45' W 074°01'0 0.0
2018-Jun-14 18:00N 40°45' W 074°01'0 0.0
2018-Jun-14 17:28N 40°45' W 074°01'1 1.7
2018-Jun-14 17:00N 40°46' W 074°01'1 1.7
2018-Jun-14 16:30N 40°45' W 074°01'4 7.9
2018-Jun-14 16:00N 40°41' W 074°03'1 2.8
2018-Jun-14 15:30N 40°42' W 074°01'4 7.5
2018-Jun-14 15:00N 40°46' W 074°01'0 0.0
2018-Jun-14 14:30N 40°46' W 074°01'1 1.3
2018-Jun-14 14:00N 40°45' W 074°01'0 0.0
2018-Jun-14 09:05N 40°45' W 074°01'0 0.1
2018-Jun-14 09:00N 40°45' W 074°01'1 1.6
2018-Jun-14 08:30N 40°46' W 074°01'0 0.7
2018-Jun-14 08:00N 40°45' W 074°01'2 4.3
2018-Jun-14 07:30N 40°43' W 074°01'2 4.7
2018-Jun-14 07:00N 40°41' W 074°03'2 4.1
2018-Jun-14 06:30N 40°42' W 074°00'1 2.2
2018-Jun-14 06:00N 40°43' W 074°01'3 5.4
2018-Jun-14 05:30N 40°46' W 074°01'0 0.0
2018-Jun-14 04:59N 40°46' W 074°01'0 0.7
2018-Jun-14 04:30N 40°45' W 074°01'  
Track history (hours):
 
Tides and Currents Weather Stations Pressure Air Temp Water Temp Dewpoint Dewpoint Depression Visibility Wind Speed Wind Dir Waves Ship Positions

Spirit Of New Jersey

Owner: SPIRIT CRUISES, NEW YORK, NY. More information available from US FCC via Universal Licensing System and Coast Guard Vessel Documentation Center.

Last reported at 2018-Jun-24 02:37 UTC. Time now 2018-Jun-24 07:23 UTC.
Position N 40°45' W 074°01'.

MMSI: 364919326.

Date/timePositionNaut miles runAvg speedWind from/ knotsBaromVisibWave heightAir tempDewpointWater temp
2018-Jun-24 02:37N 40°45' W 074°01'1 1.3
2018-Jun-24 02:04N 40°46' W 074°01'0 0.1
2018-Jun-24 01:58N 40°46' W 074°01'2 4.1
2018-Jun-24 01:31N 40°44' W 074°01'3 5.5
2018-Jun-24 01:01N 40°41' W 074°03'1 2.6
2018-Jun-24 00:30N 40°42' W 074°02'2 4.4
2018-Jun-24 00:00N 40°42' W 073°59'2 4.0
2018-Jun-23 23:30N 40°43' W 074°01'2 4.6
2018-Jun-23 23:00N 40°46' W 074°01'0 0.0
2018-Jun-23 22:30N 40°46' W 074°01'1 1.4
2018-Jun-23 22:00N 40°45' W 074°01'0 0.0
2018-Jun-23 19:23N 40°45' W 074°01'1 0.6
2018-Jun-23 18:03N 40°46' W 074°01'0 3.8
2018-Jun-23 18:01N 40°46' W 074°01'2 3.5
2018-Jun-23 17:30N 40°44' W 074°01'3 5.8
2018-Jun-23 17:01N 40°41' W 074°03'3 5.3
2018-Jun-23 16:31N 40°44' W 074°01'2 3.1
2018-Jun-23 15:56N 40°46' W 074°01'0 0.0
2018-Jun-23 15:30N 40°46' W 074°01'0 0.0
2018-Jun-23 14:59N 40°46' W 074°01'1 1.2
2018-Jun-23 14:18N 40°45' W 074°01'0 0.0
2018-Jun-23 08:03N 40°45' W 074°01'0 6.8
2018-Jun-23 08:01N 40°45' W 074°01'1 1.0
2018-Jun-23 07:29N 40°46' W 074°01'2 3.5
2018-Jun-23 07:01N 40°44' W 074°01'3 5.7
2018-Jun-23 06:31N 40°41' W 074°02'4 7.4
2018-Jun-23 06:00N 40°43' W 073°58'2 4.8
2018-Jun-23 05:31N 40°42' W 074°01'4 7.3
2018-Jun-23 05:00N 40°46' W 074°01'0 0.0
2018-Jun-23 04:30N 40°46' W 074°01'0 1.0
2018-Jun-23 04:00N 40°45' W 074°01'0 0.3
2018-Jun-23 03:03N 40°45' W 074°01'0 0.0
2018-Jun-23 02:52N 40°45' W 074°01'1 0.7
2018-Jun-23 01:49N 40°46' W 074°01'0 1.1
2018-Jun-23 01:31N 40°45' W 074°01'4 7.9
2018-Jun-23 01:01N 40°42' W 074°02'2 3.6
2018-Jun-23 00:31N 40°42' W 074°00'2 3.5
2018-Jun-23 00:00N 40°44' W 074°01'2 3.8
2018-Jun-22 23:30N 40°46' W 074°01'0 0.0
2018-Jun-22 23:00N 40°46' W 074°01'0 0.0
2018-Jun-22 22:30N 40°46' W 074°01'1 1.3
2018-Jun-22 21:59N 40°45' W 074°01'0 0.0
2018-Jun-22 02:09N 40°45' W 074°01'0 0.0
2018-Jun-22 02:00N 40°45' W 074°01'0 0.0
2018-Jun-22 01:21N 40°45' W 074°01'1 4.2
2018-Jun-22 01:00N 40°44' W 074°01'3 5.3
2018-Jun-22 00:30N 40°41' W 074°03'2 4.6
2018-Jun-22 00:00N 40°42' W 073°60'3 5.2
2018-Jun-21 23:30N 40°45' W 074°01'0 0.4
2018-Jun-21 22:38N 40°45' W 074°01'0 0.0
2018-Jun-21 22:20N 40°45' W 074°01'0 0.0
2018-Jun-21 21:55N 40°45' W 074°01'0 0.0
2018-Jun-21 19:45N 40°45' W 074°01'0 0.0
2018-Jun-21 19:13N 40°45' W 074°01'0 0.0
2018-Jun-21 18:56N 40°45' W 074°01'1 1.7
2018-Jun-21 18:29N 40°46' W 074°01'0 0.0
2018-Jun-21 18:00N 40°46' W 074°01'1 2.6
2018-Jun-21 17:30N 40°44' W 074°01'3 6.1
2018-Jun-21 17:00N 40°41' W 074°02'2 3.3
2018-Jun-21 16:30N 40°43' W 074°01'3 5.3
2018-Jun-21 16:00N 40°46' W 074°01'0 0.0
2018-Jun-21 15:29N 40°46' W 074°01'0 1.0
2018-Jun-21 15:00N 40°45' W 074°01'0 0.6
2018-Jun-21 14:30N 40°45' W 074°01'0 0.0
2018-Jun-21 02:50N 40°45' W 074°01'1 2.4
2018-Jun-21 02:30N 40°46' W 074°01'0 0.0
2018-Jun-21 02:00N 40°46' W 074°01'0 0.0
2018-Jun-21 01:30N 40°46' W 074°01'2 4.6
2018-Jun-21 01:00N 40°43' W 074°01'2 4.0
2018-Jun-21 00:30N 40°41' W 074°02'2 4.3
2018-Jun-21 00:00N 40°42' W 073°60'1 2.9
2018-Jun-20 23:30N 40°43' W 074°01'2 4.6
2018-Jun-20 23:00N 40°46' W 074°01'0 0.0
2018-Jun-20 22:30N 40°46' W 074°01'0 0.0
2018-Jun-20 22:00N 40°46' W 074°01'1 1.5
2018-Jun-20 21:29N 40°45' W 074°01'0 0.0
2018-Jun-20 01:24N 40°45' W 074°01'1 1.8
2018-Jun-20 00:59N 40°44' W 074°01'3 6.5
2018-Jun-20 00:30N 40°41' W 074°02'2 3.0
2018-Jun-20 00:00N 40°43' W 074°02'2 4.7
2018-Jun-19 23:30N 40°45' W 074°01'0 0.0
2018-Jun-19 23:00N 40°45' W 074°01'0 0.0
2018-Jun-19 22:30N 40°45' W 074°01'0 0.0
2018-Jun-19 22:00N 40°45' W 074°01'0 0.0
2018-Jun-19 21:29N 40°45' W 074°01'0 0.0
2018-Jun-19 20:59N 40°45' W 074°01'0 0.0
2018-Jun-19 20:27N 40°45' W 074°01'0 0.0
2018-Jun-19 19:38N 40°45' W 074°01'0 3.2
2018-Jun-19 19:30N 40°45' W 074°01'0 0.8
2018-Jun-19 19:00N 40°46' W 074°01'0 0.5
2018-Jun-19 18:30N 40°46' W 074°01'4 7.7
2018-Jun-19 18:00N 40°42' W 074°02'1 2.9
2018-Jun-19 17:30N 40°42' W 074°00'4 7.1
2018-Jun-19 17:00N 40°46' W 074°01'0 0.0
2018-Jun-19 16:30N 40°46' W 074°01'1 1.3
2018-Jun-19 15:55N 40°45' W 074°01'0 0.0
2018-Jun-19 01:46N 40°45' W 074°01'1 2.8
2018-Jun-19 01:31N 40°44' W 074°01'3 5.3
2018-Jun-19 01:00N 40°42' W 074°02'2 4.0
2018-Jun-19 00:31N 40°42' W 073°60'1 2.2
2018-Jun-19 00:01N 40°42' W 074°01'4 7.8
2018-Jun-18 23:29N 40°46' W 074°00'1 1.9
2018-Jun-18 22:59N 40°45' W 074°01'0 0.0
2018-Jun-18 03:27N 40°45' W 074°01'2 5.1
2018-Jun-18 03:00N 40°43' W 074°02'1 2.6
2018-Jun-18 02:30N 40°42' W 074°00'3 6.3
2018-Jun-18 02:00N 40°45' W 074°01'0 0.4
2018-Jun-18 01:09N 40°45' W 074°01'0 0.0
2018-Jun-18 00:46N 40°45' W 074°01'0 0.0
2018-Jun-18 00:26N 40°45' W 074°01'0 1.1
2018-Jun-18 00:00N 40°45' W 074°01'0 0.6
2018-Jun-17 23:29N 40°46' W 074°01'0 0.1
2018-Jun-17 23:00N 40°46' W 074°01'3 6.1
2018-Jun-17 22:30N 40°43' W 074°02'1 2.8
2018-Jun-17 22:01N 40°42' W 074°00'3 5.3
2018-Jun-17 21:30N 40°45' W 074°01'1 1.9
2018-Jun-17 21:00N 40°46' W 074°01'0 0.0
2018-Jun-17 20:30N 40°46' W 074°01'1 1.5
2018-Jun-17 19:59N 40°45' W 074°01'0 0.0
2018-Jun-17 19:30N 40°45' W 074°01'0 0.0
2018-Jun-17 18:56N 40°45' W 074°01'1 1.8
2018-Jun-17 18:30N 40°46' W 074°01'0 0.2
2018-Jun-17 18:00N 40°46' W 074°01'3 5.1
2018-Jun-17 17:30N 40°43' W 074°01'1 2.6
2018-Jun-17 17:00N 40°42' W 074°01'2 4.2
2018-Jun-17 16:30N 40°44' W 074°01'2 3.3
2018-Jun-17 16:00N 40°46' W 074°01'0 0.0
2018-Jun-17 15:29N 40°46' W 074°01'0 0.0
2018-Jun-17 15:00N 40°46' W 074°01'1 0.1
2018-Jun-17 03:09N 40°45' W 074°01'0 2.8
2018-Jun-17 03:00N 40°45' W 074°01'0 0.7
2018-Jun-17 02:30N 40°46' W 074°01'0 0.0
2018-Jun-17 02:00N 40°46' W 074°01'1 1.9
2018-Jun-17 01:30N 40°45' W 074°01'4 7.2
2018-Jun-17 01:00N 40°41' W 074°02'1 2.6
2018-Jun-17 00:30N 40°42' W 074°01'2 3.8
2018-Jun-17 00:00N 40°43' W 073°59'2 4.1
2018-Jun-16 23:30N 40°43' W 074°01'3 6.1
2018-Jun-16 23:00N 40°46' W 074°01'0 0.0
2018-Jun-16 22:30N 40°46' W 074°01'0 0.0
2018-Jun-16 22:00N 40°46' W 074°01'1 1.5
2018-Jun-16 21:30N 40°45' W 074°01'0 0.0
2018-Jun-16 18:41N 40°45' W 074°01'1 4.0
2018-Jun-16 18:30N 40°46' W 074°01'0 0.0
2018-Jun-16 18:00N 40°46' W 074°01'1 2.6
2018-Jun-16 17:30N 40°44' W 074°01'3 5.1
2018-Jun-16 17:00N 40°42' W 074°02'2 4.4
2018-Jun-16 16:30N 40°44' W 074°01'2 3.2
2018-Jun-16 16:00N 40°46' W 074°01'0 0.0
2018-Jun-16 15:30N 40°46' W 074°01'0 0.0
2018-Jun-16 15:00N 40°46' W 074°01'0 0.0
2018-Jun-16 14:30N 40°46' W 074°01'0 0.0
2018-Jun-16 14:00N 40°46' W 074°01'1 0.1
2018-Jun-16 02:46N 40°45' W 074°01'1 3.1
2018-Jun-16 02:31N 40°46' W 074°01'0 0.0
2018-Jun-16 02:00N 40°46' W 074°01'2 3.5
2018-Jun-16 01:31N 40°44' W 074°01'2 4.9
2018-Jun-16 01:01N 40°42' W 074°02'3 5.5
2018-Jun-16 00:30N 40°43' W 073°59'2 3.5
2018-Jun-16 00:01N 40°44' W 073°58'3 6.5
2018-Jun-15 23:30N 40°42' W 074°01'4 7.4
2018-Jun-15 23:00N 40°46' W 074°01'0 0.0
2018-Jun-15 22:30N 40°46' W 074°01'0 0.0
2018-Jun-15 22:01N 40°46' W 074°01'1 1.5
2018-Jun-15 21:30N 40°45' W 074°01'0 0.0
2018-Jun-15 18:35N 40°45' W 074°01'0 0.6
2018-Jun-15 18:30N 40°45' W 074°01'1 1.5
2018-Jun-15 18:00N 40°46' W 074°01'2 3.9
2018-Jun-15 17:30N 40°44' W 074°01'3 5.2
2018-Jun-15 17:00N 40°41' W 074°03'1 2.7
2018-Jun-15 16:30N 40°42' W 074°01'4 7.4
2018-Jun-15 16:00N 40°46' W 074°01'0 0.0
2018-Jun-15 15:30N 40°46' W 074°01'0 0.0
2018-Jun-15 15:00N 40°46' W 074°01'1 0.1
2018-Jun-15 00:51N 40°45' W 074°01'2 6.1
2018-Jun-15 00:30N 40°43' W 074°01'1 2.1
2018-Jun-15 00:00N 40°42' W 074°01'1 1.6
2018-Jun-14 23:30N 40°42' W 074°00'3 6.6
2018-Jun-14 23:00N 40°45' W 074°01'0 0.1
2018-Jun-14 20:20N 40°45' W 074°01'0 0.0
2018-Jun-14 19:52N 40°45' W 074°01'0 0.0
2018-Jun-14 19:27N 40°45' W 074°01'0 0.0
2018-Jun-14 19:00N 40°45' W 074°01'0 0.0
2018-Jun-14 18:00N 40°45' W 074°01'0 0.0
2018-Jun-14 17:28N 40°45' W 074°01'1 1.7
2018-Jun-14 17:00N 40°46' W 074°01'1 1.7
2018-Jun-14 16:30N 40°45' W 074°01'4 7.9
2018-Jun-14 16:00N 40°41' W 074°03'1 2.8
2018-Jun-14 15:30N 40°42' W 074°01'4 7.5
2018-Jun-14 15:00N 40°46' W 074°01'0 0.0
2018-Jun-14 14:30N 40°46' W 074°01'1 1.3
2018-Jun-14 14:00N 40°45' W 074°01'0 0.0
2018-Jun-14 09:05N 40°45' W 074°01'0 0.1
2018-Jun-14 09:00N 40°45' W 074°01'1 1.6
2018-Jun-14 08:30N 40°46' W 074°01'0 0.7
2018-Jun-14 08:00N 40°45' W 074°01'2 4.3
2018-Jun-14 07:30N 40°43' W 074°01'2 4.7
2018-Jun-14 07:00N 40°41' W 074°03'2 4.1
2018-Jun-14 06:30N 40°42' W 074°00'1 2.2
2018-Jun-14 06:00N 40°43' W 074°01'3 5.4
2018-Jun-14 05:30N 40°46' W 074°01'0 0.0
2018-Jun-14 04:59N 40°46' W 074°01'0 0.7
2018-Jun-14 04:30N 40°45' W 074°01'  

Dump ship's entire track history